Appleton, Wisconsin
Current Conditions -  °F | °C
As of 1:55 AM on Friday 19 Dec 2014 (Local Time) from KATW Reporting Station
Clear Clear  
Wind Chill: -14°   Ceiling: Unl
Heat Index: -8°   Visibility: 10mi
Dew Point: -8°   Wind: 8mph
Humidity: 100%   Direction: 280°W
Pressure: 30.27"   Gusts: NA
Location:  44.26°N, 88.42°W
Report Text: KATW 190755Z AUTO 28007KT 10SM CLR M08/M08 A3027 RMK AO2
Loading
Personal Weather Stations






























Interactive Weather Map New forecast layout! Learn more

10-Day Weather Forecast

Advertisements
Track Severe Weather on mobile